KNGU/NGU METAR and TAF weather

Enter ICAO airport designator
Station Type Date Time Source
KNGU METAR 2020/09/25 18:59 UTC NOAA

KNGU 251859Z 09007KT 8SM -RA SCT065 OVC100 19/16 A3011 RMK AO2 SLP197 P0000 T01940156 $


Station Type Date Time Source
KNGU Decoded METAR 2020/09/25 18:59 UTC NOAA

Norfolk, Naval Air Station, VA, United States (KNGU) 36-56-01N 076-17-45W 8M
Sep 25, 2020 - 02:59 PM EDT / 2020.09.25 1859 UTC
Wind: from the E (090 degrees) at 8 MPH (7 KT):0
Visibility: 8 mile(s):0
Sky conditions: overcast
Weather: light rain
Precipitation last hour: A trace
Temperature: 66.9 F (19.4 C)
Dew Point: 60.1 F (15.6 C)
Relative Humidity: 78%
Pressure (altimeter): 30.11 in. Hg (1019 hPa)
ob: KNGU 251859Z 09007KT 8SM -RA SCT065 OVC100 19/16 A3011 RMK AO2 SLP197 P0000 T01940156
cycle: 19

Station Type Date Time Source
KNGU TAF 2020/09/25 15:15 UTC NOAA

TAF KNGU 2515/2615 VRB04KT 9999 VCSH SCT040 BKN080 OVC200 QNH3011INS
TEMPO 2515/2518 4800 -SHRA BR BKN040 OVC080
FM251800 VRB04KT 8000 -SHRA BR OVC030 QNH3005INS
TEMPO 2518/2600 11007KT 3200 -SHRA BR
FM260000 14007KT 9999 VCSH BKN030 OVC090 QNH3000INS
FM260600 15005KT 9000 BR BKN015 OVC050 QNH2995INS T23/2519Z T19/2611Z FN20004

Example: see airport list